Time;durP1;ratioP1;P1;durP2;ratioP2;P2;SDS_P1;SDS_P2;PMS_P1;PMS_P2;Temp;Humidity;BMP_temperature;BMP_pressure;BME280_temperature;BME280_humidity;BME280_pressure;Samples;Min_cycle;Max_cycle;Signal;HPM_P1;HPM_P2
2022/09/17 00:00:37;;;;;;;5.97;0.95;;;;;;;11.60;100.00;101374.94;5081868;28;20043;-67
2022/09/17 00:03:04;;;;;;;10.68;1.27;;;;;;;11.59;100.00;101386.34;5071938;28;20038;-67
2022/09/17 00:05:29;;;;;;;11.27;1.65;;;;;;;11.59;100.00;101383.69;5082375;28;20024;-67
2022/09/17 00:07:55;;;;;;;11.95;1.40;;;;;;;11.61;100.00;101390.78;5074306;28;20383;-68
2022/09/17 00:10:22;;;;;;;9.80;1.83;;;;;;;11.64;100.00;101390.84;5064602;28;20057;-69
2022/09/17 00:12:47;;;;;;;12.57;1.88;;;;;;;11.69;100.00;101387.41;5070193;28;20446;-66
2022/09/17 00:15:13;;;;;;;7.72;1.45;;;;;;;11.69;100.00;101387.41;5057188;28;20029;-68
2022/09/17 00:17:39;;;;;;;11.77;1.95;;;;;;;11.70;100.00;101392.72;5061306;28;20086;-68
2022/09/17 00:20:08;;;;;;;11.70;1.58;;;;;;;11.74;100.00;101393.69;5067227;28;20035;-68
2022/09/17 00:22:34;;;;;;;13.13;1.63;;;;;;;11.78;100.00;101422.75;5044698;28;20033;-68
2022/09/17 00:24:59;;;;;;;11.35;1.40;;;;;;;11.78;100.00;101435.06;5064321;28;20024;-68
2022/09/17 00:27:25;;;;;;;11.30;1.23;;;;;;;11.79;100.00;101432.47;5060710;28;20024;-68
2022/09/17 00:29:50;;;;;;;10.23;1.45;;;;;;;11.67;100.00;101418.16;5054856;28;20025;-68
2022/09/17 00:32:15;;;;;;;4.15;1.00;;;;;;;11.59;100.00;101418.84;5070844;28;20025;-68
2022/09/17 00:34:42;;;;;;;15.63;1.55;;;;;;;11.53;100.00;101417.81;5056539;28;20078;-68
2022/09/17 00:37:07;;;;;;;15.00;1.77;;;;;;;11.51;100.00;101414.28;5057104;28;20029;-68
2022/09/17 00:39:33;;;;;;;15.82;1.77;;;;;;;11.43;100.00;101412.34;5058813;28;20032;-68
2022/09/17 00:41:58;;;;;;;13.93;1.40;;;;;;;11.43;100.00;101400.94;5051106;28;20465;-67
2022/09/17 00:44:54;;;;;;;8.10;1.35;;;;;;;11.36;100.00;101405.16;5067600;28;20162;-67
2022/09/17 00:47:43;;;;;;;13.88;1.20;;;;;;;11.33;100.00;101394.56;5064717;28;20052;-68
2022/09/17 00:50:16;;;;;;;10.88;1.40;;;;;;;11.30;100.00;101391.88;5058376;28;20020;-68
2022/09/17 00:52:54;;;;;;;8.95;1.52;;;;;;;11.25;100.00;101391.75;5073100;28;20060;-67
2022/09/17 00:55:25;;;;;;;12.73;1.10;;;;;;;11.23;100.00;101392.56;5066587;28;20063;-68
2022/09/17 00:57:53;;;;;;;15.68;1.70;;;;;;;11.24;100.00;101389.09;5068230;28;20028;-67
2022/09/17 01:00:20;;;;;;;7.75;1.35;;;;;;;11.22;100.00;101396.97;5067099;28;20045;-68
2022/09/17 01:02:46;;;;;;;11.80;1.10;;;;;;;11.19;100.00;101401.25;5062259;28;20036;-67
2022/09/17 01:05:12;;;;;;;13.38;1.40;;;;;;;11.18;100.00;101394.19;5059524;28;20027;-67
2022/09/17 01:07:47;;;;;;;10.13;0.90;;;;;;;11.10;100.00;101394.94;5072061;28;20066;-67
2022/09/17 01:10:33;;;;;;;6.93;0.85;;;;;;;11.06;100.00;101395.72;5074774;28;20067;-68
2022/09/17 01:13:30;;;;;;;5.63;0.93;;;;;;;10.98;100.00;101396.41;5079125;28;20036;-70
2022/09/17 01:16:20;;;;;;;7.88;1.20;;;;;;;10.94;100.00;101398.94;5076479;28;20024;-68
2022/09/17 01:19:07;;;;;;;5.13;1.05;;;;;;;10.89;100.00;101397.97;5077074;28;20036;-68
2022/09/17 01:21:41;;;;;;;12.10;1.13;;;;;;;10.85;100.00;101393.47;5072920;28;20073;-67
2022/09/17 01:24:12;;;;;;;13.00;1.65;;;;;;;10.86;100.00;101391.72;5072662;28;20383;-68
2022/09/17 01:26:59;;;;;;;15.10;1.55;;;;;;;10.90;100.00;101393.56;5071932;28;20024;-68
2022/09/17 01:29:46;;;;;;;14.20;2.08;;;;;;;10.94;100.00;101387.53;5070990;28;20477;-68
2022/09/17 01:32:14;;;;;;;14.73;1.80;;;;;;;11.00;100.00;101392.94;5078017;28;20024;-68
2022/09/17 01:34:57;;;;;;;10.23;1.95;;;;;;;11.10;100.00;101402.81;5073662;28;20446;-67
2022/09/17 01:37:32;;;;;;;8.93;1.63;;;;;;;11.24;100.00;101404.91;5068881;28;20098;-67
2022/09/17 01:40:11;;;;;;;9.75;1.85;;;;;;;11.40;100.00;101406.13;5075140;28;20028;-68
2022/09/17 01:42:49;;;;;;;14.60;2.35;;;;;;;11.52;100.00;101402.88;5071519;28;20032;-68
2022/09/17 01:45:23;;;;;;;14.63;2.22;;;;;;;11.62;100.00;101404.84;5069497;28;20020;-68
2022/09/17 01:47:52;;;;;;;14.77;1.92;;;;;;;11.68;100.00;101396.16;5068368;28;20028;-68
2022/09/17 01:50:27;;;;;;;19.15;2.70;;;;;;;11.69;100.00;101401.47;5068131;28;20103;-68
2022/09/17 01:52:55;;;;;;;12.98;1.60;;;;;;;11.68;100.00;101404.09;5055902;28;20114;-69
2022/09/17 01:55:25;;;;;;;11.90;1.58;;;;;;;11.66;100.00;101409.31;5072292;28;20033;-67
2022/09/17 01:57:55;;;;;;;9.98;2.30;;;;;;;11.66;100.00;101409.31;5085468;28;20027;-69
2022/09/17 02:00:21;;;;;;;10.60;1.52;;;;;;;11.68;100.00;101417.25;5078506;28;20020;-67
2022/09/17 02:02:54;;;;;;;9.73;1.25;;;;;;;11.70;100.00;101426.97;5072193;28;20029;-68
2022/09/17 02:05:34;;;;;;;20.17;1.63;;;;;;;11.74;100.00;101423.56;5071331;28;20029;-68
2022/09/17 02:08:08;;;;;;;13.27;2.20;;;;;;;11.79;100.00;101429.81;5088494;28;20442;-67
2022/09/17 02:10:36;;;;;;;;;;;;;;;11.80;100.00;101423.69;5056674;28;20037;-68
2022/09/17 02:13:14;;;;;;;11.23;1.80;;;;;;;11.80;100.00;101418.44;5061783;28;20268;-68
2022/09/17 02:15:45;;;;;;;17.33;1.90;;;;;;;11.76;100.00;101419.22;5069130;28;20158;-68
2022/09/17 02:18:23;;;;;;;16.52;1.83;;;;;;;11.74;100.00;101414.78;5064412;28;20060;-68
2022/09/17 02:20:57;;;;;;;14.85;1.83;;;;;;;11.75;100.00;101425.34;5066328;28;20036;-68
2022/09/17 02:23:28;;;;;;;13.27;2.08;;;;;;;11.73;100.00;101416.50;5060859;28;20381;-68
2022/09/17 02:26:06;;;;;;;13.95;1.33;;;;;;;11.70;100.00;101416.44;5055272;28;20048;-68
2022/09/17 02:28:46;;;;;;;10.13;1.20;;;;;;;11.70;100.00;101416.44;5071504;28;20100;-67
2022/09/17 02:31:11;;;;;;;14.07;1.90;;;;;;;11.74;100.00;101414.78;5060432;28;20079;-67
2022/09/17 02:33:40;;;;;;;9.88;1.33;;;;;;;11.79;100.00;101416.63;5054703;28;20037;-67
2022/09/17 02:36:05;;;;;;;10.65;1.77;;;;;;;11.85;100.00;101431.69;5040489;28;20024;-68
2022/09/17 02:38:31;;;;;;;11.07;1.38;;;;;;;11.98;100.00;101435.53;5055690;28;20616;-69
2022/09/17 02:41:15;;;;;;;14.25;1.98;;;;;;;12.12;100.00;101435.78;5066385;28;20028;-68
2022/09/17 02:43:55;;;;;;;11.95;1.13;;;;;;;12.15;100.00;101430.56;5065330;28;20037;-68
2022/09/17 02:46:42;;;;;;;8.07;1.35;;;;;;;12.09;100.00;101433.97;5056425;28;20025;-68
2022/09/17 02:49:19;;;;;;;10.93;1.67;;;;;;;11.98;100.00;101425.84;5065415;28;20469;-69
2022/09/17 02:51:55;;;;;;;7.78;1.13;;;;;;;11.92;100.00;101432.72;5056061;28;20036;-68
2022/09/17 02:54:30;;;;;;;11.63;1.38;;;;;;;11.88;100.00;101429.13;5074991;28;20032;-69
2022/09/17 02:57:06;;;;;;;5.95;1.10;;;;;;;11.85;100.00;101430.81;5070139;28;20028;-68
2022/09/17 02:59:34;;;;;;;13.80;1.40;;;;;;;11.88;100.00;101429.13;5055818;28;20128;-68
2022/09/17 03:02:11;;;;;;;16.75;2.22;;;;;;;11.93;100.00;101439.78;5062723;28;20033;-67
2022/09/17 03:04:38;;;;;;;15.52;1.88;;;;;;;12.03;100.00;101438.22;5062756;28;20032;-67
2022/09/17 03:07:07;;;;;;;15.25;1.85;;;;;;;12.07;100.00;101433.06;5065456;28;20454;-68
2022/09/17 03:09:34;;;;;;;5.00;1.00;;;;;;;12.04;100.00;101433.00;5072234;28;20597;-68
2022/09/17 03:12:00;;;;;;;9.95;1.30;;;;;;;11.98;100.00;101425.84;5064916;28;20025;-67
2022/09/17 03:14:26;;;;;;;8.75;1.10;;;;;;;11.93;100.00;101434.50;5046268;28;20488;-67
2022/09/17 03:16:51;;;;;;;7.97;1.27;;;;;;;11.92;100.00;101427.44;5056568;28;20028;-66
2022/09/17 03:19:17;;;;;;;5.45;1.30;;;;;;;11.91;100.00;101430.91;5054586;28;20384;-67
2022/09/17 03:21:42;;;;;;;11.68;1.20;;;;;;;11.89;100.00;101425.63;5055055;28;20082;-68
2022/09/17 03:24:09;;;;;;;10.38;1.00;;;;;;;11.89;100.00;101435.28;5055967;28;20044;-67
2022/09/17 03:26:35;;;;;;;16.55;1.35;;;;;;;11.87;100.00;101423.81;5063881;28;20029;-68
2022/09/17 03:29:00;;;;;;;6.30;1.27;;;;;;;11.70;100.00;101426.97;5054428;28;20033;-68
2022/09/17 03:31:25;;;;;;;6.30;0.90;;;;;;;11.53;100.00;101424.00;5068073;28;20041;-67
2022/09/17 03:33:51;;;;;;;8.25;1.20;;;;;;;11.45;100.00;101431.72;5035245;28;20159;-67
2022/09/17 03:36:16;;;;;;;10.02;1.27;;;;;;;11.34;100.00;101433.25;5054550;28;20036;-68
2022/09/17 03:38:41;;;;;;;15.57;1.55;;;;;;;11.25;100.00;101433.03;5054433;28;20029;-68
2022/09/17 03:41:07;;;;;;;11.10;1.13;;;;;;;11.16;100.00;101424.91;5054582;28;20100;-67
2022/09/17 03:43:33;;;;;;;9.68;1.35;;;;;;;11.11;100.00;101424.81;5053801;28;20032;-68
2022/09/17 03:45:59;;;;;;;14.65;1.33;;;;;;;11.02;100.00;101420.19;5054138;28;20096;-67
2022/09/17 03:48:24;;;;;;;7.75;0.95;;;;;;;10.95;100.00;101423.53;5054296;28;20020;-67
2022/09/17 03:50:50;;;;;;;12.73;1.52;;;;;;;10.95;100.00;101424.41;5054355;28;20033;-68
2022/09/17 03:53:15;;;;;;;12.55;1.27;;;;;;;10.98;100.00;101426.25;5054355;28;20039;-67
2022/09/17 03:55:41;;;;;;;13.20;1.80;;;;;;;11.03;100.00;101424.63;5054311;28;20029;-67
2022/09/17 03:58:06;;;;;;;9.88;1.75;;;;;;;11.07;100.00;101418.56;5053945;28;20043;-67
2022/09/17 04:00:35;;;;;;;9.88;0.93;;;;;;;11.07;100.00;101423.84;5055361;28;20123;-68
2022/09/17 04:03:02;;;;;;;6.82;0.90;;;;;;;11.08;100.00;101419.44;5056760;28;20025;-68
2022/09/17 04:05:27;;;;;;;11.32;1.40;;;;;;;11.09;100.00;101427.38;5053689;28;20495;-68
2022/09/17 04:07:52;;;;;;;12.43;1.08;;;;;;;11.19;100.00;101430.22;5061275;28;20025;-68
2022/09/17 04:10:18;;;;;;;8.50;1.15;;;;;;;11.22;100.00;101427.69;5075219;28;20055;-68
2022/09/17 04:12:43;;;;;;;12.40;1.35;;;;;;;11.24;100.00;101431.25;5073418;28;20070;-66
2022/09/17 04:15:09;;;;;;;6.30;0.93;;;;;;;11.27;100.00;101441.84;5074049;28;20028;-67
2022/09/17 04:17:34;;;;;;;11.63;1.20;;;;;;;11.26;100.00;101440.09;5080275;28;20028;-68
2022/09/17 04:20:00;;;;;;;9.05;0.80;;;;;;;11.31;100.00;101441.06;5075600;28;20016;-68
2022/09/17 04:22:25;;;;;;;8.57;0.73;;;;;;;11.36;100.00;101438.53;5076437;28;20492;-68
2022/09/17 04:24:51;;;;;;;7.70;1.05;;;;;;;11.38;100.00;101443.00;5081652;28;20021;-67
2022/09/17 04:27:16;;;;;;;12.57;1.08;;;;;;;11.39;100.00;101438.59;5073537;28;20059;-68
2022/09/17 04:29:42;;;;;;;7.30;0.90;;;;;;;11.43;100.00;101440.44;5071291;28;20054;-70
2022/09/17 04:32:08;;;;;;;7.05;1.00;;;;;;;11.50;100.00;101450.25;5072221;28;20032;-67
2022/09/17 04:34:33;;;;;;;8.43;0.75;;;;;;;11.62;100.00;101465.47;5072233;28;20024;-67
2022/09/17 04:36:59;;;;;;;12.73;2.17;;;;;;;11.72;100.00;101475.38;5072456;28;20032;-67
2022/09/17 04:39:24;;;;;;;9.85;1.00;;;;;;;11.76;100.00;101474.59;5072558;28;20365;-67
2022/09/17 04:41:49;;;;;;;11.18;1.52;;;;;;;11.73;100.00;101469.22;5077013;28;20028;-68
2022/09/17 04:44:15;;;;;;;11.77;1.45;;;;;;;11.67;100.00;101469.09;5073058;28;20032;-68
2022/09/17 04:46:40;;;;;;;14.27;1.35;;;;;;;11.60;100.00;101470.72;5073842;28;20043;-68
2022/09/17 04:49:06;;;;;;;11.95;1.00;;;;;;;11.54;100.00;101467.06;5078890;28;20024;-68
2022/09/17 04:51:31;;;;;;;8.95;1.33;;;;;;;11.45;100.00;101473.00;5074596;28;20105;-68
2022/09/17 04:53:57;;;;;;;8.90;1.10;;;;;;;11.37;100.00;101469.31;5081560;28;20481;-67
2022/09/17 04:56:22;;;;;;;7.78;1.35;;;;;;;11.27;100.00;101474.38;5078352;28;20103;-68
2022/09/17 04:58:47;;;;;;;8.98;1.00;;;;;;;11.22;100.00;101470.72;5073161;28;20034;-69
2022/09/17 05:01:13;;;;;;;5.43;0.70;;;;;;;11.17;100.00;101474.97;5071058;28;20400;-68
2022/09/17 05:03:39;;;;;;;10.18;0.80;;;;;;;11.14;100.00;101457.34;5072736;28;20079;-69
2022/09/17 05:06:04;;;;;;;9.80;0.88;;;;;;;11.07;100.00;101465.97;5075317;28;20484;-69
2022/09/17 05:08:30;;;;;;;11.57;1.17;;;;;;;11.01;100.00;101460.53;5071758;28;20396;-68
2022/09/17 05:10:55;;;;;;;8.80;1.23;;;;;;;10.98;100.00;101454.31;5070122;28;20025;-67
2022/09/17 05:13:21;;;;;;;4.13;1.13;;;;;;;10.96;100.00;101454.28;5078857;28;20040;-68
2022/09/17 05:15:46;;;;;;;6.25;0.70;;;;;;;10.98;100.00;101455.22;5076857;28;20021;-68
2022/09/17 05:18:12;;;;;;;5.63;0.75;;;;;;;10.98;100.00;101455.22;5074192;28;20040;-69
2022/09/17 05:20:37;;;;;;;3.33;0.68;;;;;;;11.00;100.00;101453.53;5078344;28;20032;-68
2022/09/17 05:23:03;;;;;;;9.50;0.80;;;;;;;11.02;100.00;101464.97;5075626;28;20103;-67
2022/09/17 05:25:29;;;;;;;5.32;0.70;;;;;;;11.04;100.00;101465.91;5072032;28;20095;-68
2022/09/17 05:27:55;;;;;;;7.15;1.58;;;;;;;11.06;100.00;101464.19;5075289;28;20073;-67
2022/09/17 05:30:21;;;;;;;4.15;1.30;;;;;;;11.11;100.00;101461.69;5085839;28;20028;-66
2022/09/17 05:32:46;;;;;;;4.05;1.35;;;;;;;11.11;100.00;101472.22;5072213;28;20480;-66
2022/09/17 05:35:12;;;;;;;9.05;0.95;;;;;;;11.16;100.00;101481.09;5090916;28;20033;-68
2022/09/17 05:37:37;;;;;;;14.70;1.55;;;;;;;11.20;100.00;101471.53;5090787;28;20054;-66
2022/09/17 05:40:05;;;;;;;10.75;1.65;;;;;;;11.20;100.00;101469.78;5065629;28;20480;-69
2022/09/17 05:42:31;;;;;;;10.82;1.98;;;;;;;11.20;100.00;101474.16;5072789;28;20481;-68
2022/09/17 05:44:56;;;;;;;13.60;2.42;;;;;;;11.19;100.00;101462.75;5074179;28;20036;-67
2022/09/17 05:47:21;;;;;;;5.35;0.75;;;;;;;11.23;100.00;101466.34;5077779;28;20037;-68
2022/09/17 05:49:46;;;;;;;6.88;1.58;;;;;;;11.25;100.00;101464.63;5057923;28;20032;-65
2022/09/17 05:52:12;;;;;;;9.80;0.98;;;;;;;11.27;100.00;101471.72;5075433;28;20533;-66
2022/09/17 05:54:37;;;;;;;7.10;0.73;;;;;;;11.32;100.00;101476.22;5076114;28;20044;-69
2022/09/17 05:57:03;;;;;;;9.52;1.50;;;;;;;11.37;100.00;101493.91;5075997;28;20025;-68
2022/09/17 05:59:28;;;;;;;7.95;1.20;;;;;;;11.40;100.00;101498.38;5072362;28;20028;-68
2022/09/17 06:01:54;;;;;;;9.48;1.25;;;;;;;11.36;100.00;101492.13;5073228;28;20070;-68
2022/09/17 06:04:19;;;;;;;5.32;0.75;;;;;;;11.26;100.00;101498.91;5075701;28;20033;-68
2022/09/17 06:06:45;;;;;;;3.42;0.47;;;;;;;11.16;100.00;101510.06;5076642;28;20024;-69
2022/09/17 06:09:10;;;;;;;8.23;1.25;;;;;;;11.01;100.00;101497.41;5073483;28;20496;-68
2022/09/17 06:11:37;;;;;;;2.97;0.50;;;;;;;10.86;100.00;101497.03;5067551;28;20060;-66
2022/09/17 06:14:02;;;;;;;8.68;1.95;;;;;;;10.77;100.00;101490.69;5055817;28;20024;-66
2022/09/17 06:16:27;;;;;;;6.03;0.60;;;;;;;10.71;100.00;101493.13;5054100;28;20041;-67
2022/09/17 06:18:53;;;;;;;7.43;1.10;;;;;;;10.74;100.00;101502.84;5055606;28;20021;-67
2022/09/17 06:21:23;;;;;;;6.15;0.80;;;;;;;10.77;100.00;101495.94;5055230;28;20115;-67
2022/09/17 06:23:49;;;;;;;4.88;0.93;;;;;;;10.83;100.00;101512.75;5054912;28;20053;-66
2022/09/17 06:26:15;;;;;;;4.72;0.73;;;;;;;10.91;100.00;101512.09;5059637;28;20025;-66
2022/09/17 06:28:41;;;;;;;7.07;1.02;;;;;;;11.00;100.00;101518.44;5053894;28;20419;-66
2022/09/17 06:31:08;;;;;;;7.10;1.00;;;;;;;11.04;100.00;101523.84;5055158;28;20021;-66
2022/09/17 06:33:35;;;;;;;9.52;0.95;;;;;;;11.01;100.00;101523.75;5054034;28;20037;-67
2022/09/17 06:36:06;;;;;;;12.02;1.50;;;;;;;11.03;100.00;101521.16;5053522;28;20039;-67
2022/09/17 06:38:34;;;;;;;6.07;0.82;;;;;;;11.01;100.00;101529.00;5054012;28;20032;-67
2022/09/17 06:41:00;;;;;;;6.82;0.88;;;;;;;10.98;100.00;101525.44;5053950;28;20032;-66
2022/09/17 06:43:26;;;;;;;8.52;0.95;;;;;;;11.01;100.00;101523.75;5054792;28;20096;-67
2022/09/17 06:45:56;;;;;;;9.13;1.00;;;;;;;11.05;100.00;101508.94;5055446;28;20108;-70
2022/09/17 06:48:22;;;;;;;6.30;0.88;;;;;;;11.07;100.00;101512.47;5054257;28;20033;-68
2022/09/17 06:50:49;;;;;;;5.47;0.70;;;;;;;11.09;100.00;101505.50;5054694;28;20108;-67
2022/09/17 06:53:14;;;;;;;5.07;1.05;;;;;;;11.13;100.00;101507.38;5055424;28;20025;-67
2022/09/17 06:55:40;;;;;;;7.68;1.42;;;;;;;11.14;100.00;101507.41;5053456;28;20017;-67
2022/09/17 06:58:05;;;;;;;5.65;1.17;;;;;;;11.20;100.00;101518.94;5036201;28;20552;-67
2022/09/17 07:00:31;;;;;;;7.93;1.13;;;;;;;11.29;100.00;101503.38;5054122;28;20396;-67
2022/09/17 07:02:57;;;;;;;12.35;0.80;;;;;;;11.44;100.00;101508.13;5053195;28;20025;-68
2022/09/17 07:05:23;;;;;;;8.63;1.20;;;;;;;11.58;100.00;101517.22;5060340;28;20439;-67
2022/09/17 07:07:49;;;;;;;12.80;1.25;;;;;;;11.70;100.00;101510.47;5053913;28;20017;-70
2022/09/17 07:10:15;;;;;;;12.60;1.80;;;;;;;11.75;100.00;101520.25;5074394;28;20051;-69
2022/09/17 07:12:40;;;;;;;8.80;1.02;;;;;;;11.76;100.00;101510.59;5075233;28;20024;-68
2022/09/17 07:15:10;;;;;;;6.70;0.85;;;;;;;11.81;100.00;101512.50;5058956;28;20059;-69
2022/09/17 07:17:39;;;;;;;6.68;0.80;;;;;;;11.81;100.00;101504.59;5073550;28;20496;-67
2022/09/17 07:20:06;;;;;;;3.45;0.70;;;;;;;11.82;100.00;101506.34;5067955;28;20027;-68
2022/09/17 07:22:32;;;;;;;1.90;0.60;;;;;;;11.82;100.00;101508.97;5072157;28;20066;-69
2022/09/17 07:24:58;;;;;;;2.25;0.50;;;;;;;11.88;100.00;101512.63;5075825;28;20013;-68
2022/09/17 07:27:26;;;;;;;5.13;0.57;;;;;;;11.91;100.00;101510.03;5045505;28;20062;-68
2022/09/17 07:29:51;;;;;;;7.72;0.70;;;;;;;11.96;100.00;101511.06;5074117;28;20055;-67
2022/09/17 07:32:16;;;;;;;6.18;0.70;;;;;;;12.02;100.00;101512.94;5073190;28;20095;-69
2022/09/17 07:34:42;;;;;;;8.75;0.80;;;;;;;12.11;100.00;101502.59;5082116;28;20417;-67
2022/09/17 07:37:07;;;;;;;3.58;0.63;;;;;;;12.25;100.00;101501.13;5075471;28;20037;-68
2022/09/17 07:39:33;;;;;;;4.53;0.70;;;;;;;12.46;100.00;101511.22;5075236;28;20190;-68
2022/09/17 07:41:58;;;;;;;9.00;1.02;;;;;;;12.77;100.00;101516.19;5073701;28;20024;-66
2022/09/17 07:44:24;;;;;;;4.75;0.77;;;;;;;12.92;100.00;101529.69;5073793;28;20029;-69
2022/09/17 07:46:49;;;;;;;3.40;0.60;;;;;;;12.87;100.00;101531.34;5069050;28;20119;-68
2022/09/17 07:49:14;;;;;;;8.25;0.60;;;;;;;12.68;100.00;101543.31;5072551;28;20608;-69
2022/09/17 07:51:39;;;;;;;4.95;0.75;;;;;;;12.50;100.00;101529.78;5074532;28;20456;-69
2022/09/17 07:54:06;;;;;;;6.13;0.70;;;;;;;12.28;100.00;101526.69;5060280;28;20114;-69
2022/09/17 07:56:31;;;;;;;6.95;0.60;;;;;;;12.05;100.00;101529.75;5073690;28;20103;-68
2022/09/17 07:58:56;;;;;;;8.00;0.90;;;;;;;11.89;100.00;101520.56;5073605;28;20103;-69
2022/09/17 08:01:22;;;;;;;3.97;0.60;;;;;;;11.76;100.00;101522.06;5072334;28;20464;-67
2022/09/17 08:03:50;;;;;;;5.75;0.60;;;;;;;11.76;100.00;101531.69;5073854;28;20032;-69
2022/09/17 08:06:18;;;;;;;2.20;0.45;;;;;;;11.74;100.00;101523.75;5073835;28;20035;-69
2022/09/17 08:08:44;;;;;;;3.20;0.75;;;;;;;11.78;100.00;101528.22;5069380;28;20119;-68
2022/09/17 08:11:14;;;;;;;6.25;0.60;;;;;;;11.88;100.00;101523.16;5053744;28;20524;-69
2022/09/17 08:13:40;;;;;;;6.05;0.90;;;;;;;11.99;100.00;101516.41;5054531;28;20366;-69
2022/09/17 08:16:14;;;;;;;5.85;0.98;;;;;;;12.16;100.00;101522.06;5060281;28;20055;-68
2022/09/17 08:18:40;;;;;;;4.03;0.77;;;;;;;12.39;100.00;101530.44;5051419;28;20064;-68
2022/09/17 08:21:07;;;;;;;5.43;0.70;;;;;;;12.57;100.00;101534.31;5058333;28;20124;-69
2022/09/17 08:23:38;;;;;;;7.07;0.90;;;;;;;12.70;100.00;101546.88;5035652;28;20031;-69
2022/09/17 08:26:07;;;;;;;8.13;0.90;;;;;;;12.75;100.00;101545.22;5046174;28;20047;-68
2022/09/17 08:28:33;;;;;;;7.75;1.05;;;;;;;12.77;100.00;101543.50;5049120;28;20461;-67
2022/09/17 08:31:01;;;;;;;9.75;0.90;;;;;;;12.78;100.00;101534.72;5033745;28;20029;-69
2022/09/17 08:33:31;;;;;;;10.00;1.27;;;;;;;12.78;100.00;101545.28;5052478;28;20086;-67
2022/09/17 08:35:58;;;;;;;11.95;1.83;;;;;;;12.83;100.00;101537.44;5052623;28;20167;-68
2022/09/17 08:38:27;;;;;;;7.72;0.98;;;;;;;12.89;100.00;101539.31;5052183;28;20497;-68
2022/09/17 08:41:13;;;;;;;6.72;0.98;;;;;;;13.07;100.00;101546.66;5053251;28;20040;-68
2022/09/17 08:43:54;;;;;;;8.13;0.98;;;;;;;13.21;100.00;101541.63;5051323;28;20059;-69
2022/09/17 08:46:20;;;;;;;8.48;0.93;;;;;;;13.29;100.00;101538.25;5052124;28;20020;-68
2022/09/17 08:49:00;;;;;;;14.75;0.93;;;;;;;13.41;100.00;101532.28;5051822;28;20444;-68
2022/09/17 08:52:00;;;;;;;8.23;0.70;;;;;;;13.63;100.00;101537.91;5057107;28;20496;-67
2022/09/17 08:54:34;;;;;;;4.28;0.75;;;;;;;13.76;100.00;101531.94;5014765;28;20040;-67
2022/09/17 08:57:19;;;;;;;6.85;0.85;;;;;;;13.93;100.00;101539.22;5057467;28;20060;-67
2022/09/17 09:00:16;;;;;;;3.60;0.70;;;;;;;14.32;100.00;101537.97;5052208;28;20036;-68
2022/09/17 09:02:41;;;;;;;6.60;0.70;;;;;;;14.67;100.00;101546.34;5044518;28;20045;-69
2022/09/17 09:05:15;;;;;;;3.53;0.65;;;;;;;14.88;100.00;101547.47;5048985;28;20097;-68
2022/09/17 09:07:46;;;;;;;;;;;;;;;14.94;100.00;101547.50;5049952;28;20491;-68
2022/09/17 09:10:25;;;;;;;4.63;1.00;;;;;;;14.81;100.00;101557.13;5047848;28;20007;-68
2022/09/17 09:12:52;;;;;;;5.05;0.73;;;;;;;14.72;100.00;101554.38;5051219;28;20757;-68
2022/09/17 09:15:36;;;;;;;7.47;1.02;;;;;;;14.61;100.00;101548.00;5049371;28;20024;-68
2022/09/17 09:18:34;;;;;;;6.80;1.40;;;;;;;14.64;100.00;101551.63;5050460;28;20037;-69
2022/09/17 09:21:11;;;;;;;11.35;0.93;;;;;;;14.82;100.00;101536.78;5033325;28;20033;-68
2022/09/17 09:23:59;;;;;;;9.32;1.58;;;;;;;15.12;100.00;101552.09;5050847;28;20424;-67
2022/09/17 09:26:46;;;;;;;3.40;0.60;;;;;;;15.20;100.00;101553.94;5049800;28;20138;-68
2022/09/17 09:29:39;;;;;;;9.95;0.75;;;;;;;14.77;100.00;101544.72;5050620;28;20078;-67
2022/09/17 09:32:20;;;;;;;6.95;1.70;;;;;;;14.72;100.00;101553.47;5047882;28;20052;-67
2022/09/17 09:34:47;;;;;;;4.97;1.00;;;;;;;14.53;100.00;101553.25;5050969;28;20040;-67
2022/09/17 09:37:34;;;;;;;3.47;0.95;;;;;;;14.38;100.00;101545.09;5049357;28;20079;-66
2022/09/17 09:40:27;;;;;;;12.75;0.98;;;;;;;14.41;100.00;101546.03;5049280;28;20399;-67
2022/09/17 09:42:58;;;;;;;4.68;0.80;;;;;;;14.34;100.00;101544.19;5033837;28;20045;-68
2022/09/17 09:45:47;;;;;;;6.22;0.90;;;;;;;14.33;100.00;101548.56;5050931;28;20115;-67
2022/09/17 09:48:44;;;;;;;9.95;1.15;;;;;;;14.66;100.00;101543.69;5054967;28;20071;-69
2022/09/17 09:51:19;;;;;;;8.35;1.10;;;;;;;14.90;100.00;101543.06;5051975;28;20028;-67
2022/09/17 09:53:57;;;;;;;7.85;0.77;;;;;;;15.05;100.00;101539.66;5053307;28;20055;-68
2022/09/17 09:56:45;;;;;;;6.35;1.40;;;;;;;15.02;100.00;101544.94;5049932;28;20036;-68
2022/09/17 09:59:12;;;;;;;7.45;0.80;;;;;;;15.27;100.00;101539.84;5050752;28;20041;-67
2022/09/17 10:01:40;;;;;;;12.80;2.08;;;;;;;15.64;100.00;101543.69;5051981;28;20013;-69
2022/09/17 10:04:22;;;;;;;5.45;1.52;;;;;;;15.78;100.00;101562.34;5051869;28;20060;-69
2022/09/17 10:06:51;;;;;;;7.78;1.50;;;;;;;15.51;100.00;101555.97;5066549;28;20112;-67
2022/09/17 10:09:20;;;;;;;13.13;1.92;;;;;;;15.15;100.00;101546.84;5077399;28;20496;-68
2022/09/17 10:12:18;;;;;;;5.90;1.40;;;;;;;14.96;100.00;101550.19;5070599;28;20063;-68
2022/09/17 10:14:45;;;;;;;3.17;0.90;;;;;;;15.23;100.00;101564.56;5039126;28;20333;-68
2022/09/17 10:17:20;;;;;;;18.63;1.55;;;;;;;15.37;100.00;101577.94;5070455;28;20017;-67
2022/09/17 10:20:15;;;;;;;5.70;1.02;;;;;;;15.18;100.00;101583.97;5069949;28;20407;-68
2022/09/17 10:22:43;;;;;;;8.15;1.15;;;;;;;14.79;100.00;101569.44;5069071;28;20023;-68
2022/09/17 10:25:30;;;;;;;7.78;1.13;;;;;;;14.54;100.00;101572.66;5072087;28;20032;-68
2022/09/17 10:27:58;;;;;;;6.68;1.13;;;;;;;14.56;100.00;101560.34;5069449;28;20036;-67
2022/09/17 10:30:24;;;;;;;6.95;0.77;;;;;;;14.88;100.00;101554.50;5073422;28;20024;-67
2022/09/17 10:33:10;;;;;;;3.08;0.80;;;;;;;15.39;100.00;101571.78;5074477;28;20036;-68
2022/09/17 10:35:35;;;;;;;4.78;0.80;;;;;;;15.81;100.00;101554.44;5073213;28;20024;-67
2022/09/17 10:38:01;;;;;;;10.25;1.30;;;;;;;16.30;100.00;101558.22;5077819;28;20510;-67
2022/09/17 10:40:30;;;;;;;8.75;1.27;;;;;;;16.64;100.00;101553.03;5074199;28;20089;-67
2022/09/17 10:43:10;;;;;;;7.65;1.52;;;;;;;16.95;94.50;101539.84;5076784;28;20031;-68
2022/09/17 10:45:39;;;;;;;23.52;1.80;;;;;;;17.37;100.00;101551.38;5064310;28;20047;-67
2022/09/17 10:48:12;;;;;;;11.75;1.73;;;;;;;17.50;97.51;101542.53;5077521;28;20028;-66
2022/09/17 10:50:38;;;;;;;5.70;1.30;;;;;;;17.34;83.45;101548.75;5073462;28;20066;-68
2022/09/17 10:53:06;;;;;;;11.90;1.70;;;;;;;17.14;75.09;101546.94;5074216;28;20503;-68
2022/09/17 10:55:39;;;;;;;6.88;0.85;;;;;;;17.40;67.41;101556.69;5055926;28;20037;-68
2022/09/17 10:58:07;;;;;;;10.52;1.27;;;;;;;17.43;56.59;101546.09;5067049;28;20032;-69
2022/09/17 11:00:42;;;;;;;5.70;0.57;;;;;;;17.78;67.46;101546.91;5083681;28;20322;-68
2022/09/17 11:03:25;;;;;;;10.70;1.60;;;;;;;17.99;57.64;101548.69;5074306;28;20082;-68
2022/09/17 11:05:51;;;;;;;11.23;1.90;;;;;;;18.03;50.99;101545.13;5083635;28;20049;-68
2022/09/17 11:08:29;;;;;;;5.47;1.40;;;;;;;18.20;49.63;101547.69;5083415;28;20289;-67
2022/09/17 11:11:04;;;;;;;6.57;0.93;;;;;;;18.45;54.85;101556.50;5080509;28;20341;-68
2022/09/17 11:13:39;;;;;;;9.50;1.23;;;;;;;18.63;53.12;101539.50;5065476;28;20035;-68
2022/09/17 11:16:10;;;;;;;8.27;1.38;;;;;;;18.88;52.37;101536.72;5078838;28;20106;-68
2022/09/17 11:18:42;;;;;;;11.57;1.13;;;;;;;19.22;64.41;101536.47;5081079;28;20055;-68
2022/09/17 11:21:13;;;;;;;8.63;1.63;;;;;;;19.35;54.19;101551.47;5075888;28;20110;-68
2022/09/17 11:23:44;;;;;;;12.18;1.92;;;;;;;19.36;57.35;101539.91;5078144;28;20059;-68
2022/09/17 11:26:30;;;;;;;9.35;1.70;;;;;;;19.43;62.19;101548.75;5071379;28;20017;-68
2022/09/17 11:28:58;;;;;;;10.68;1.50;;;;;;;19.49;63.22;101546.03;5075898;28;20484;-68